createdAt,value
2019-02-25T00:00:05.455Z,28.53
2019-02-25T00:02:34.098Z,20.17
2019-02-25T00:05:02.505Z,30.13
2019-02-25T00:07:30.948Z,33.00
2019-02-25T00:09:59.354Z,28.57
2019-02-25T00:12:27.773Z,28.97
2019-02-25T00:14:56.203Z,20.20
2019-02-25T00:17:24.619Z,26.13
2019-02-25T00:19:53.030Z,22.90
2019-02-25T00:22:21.462Z,23.53
2019-02-25T00:24:49.882Z,19.00
2019-02-25T00:27:18.297Z,25.70
2019-02-25T00:29:46.806Z,27.20
2019-02-25T00:32:15.286Z,28.20
2019-02-25T00:34:43.696Z,25.03
2019-02-25T00:37:12.203Z,20.37
2019-02-25T00:39:40.679Z,22.10
2019-02-25T00:42:09.089Z,31.43
2019-02-25T00:44:37.586Z,26.90
2019-02-25T00:47:06.071Z,25.03
2019-02-25T00:49:34.547Z,22.97
2019-02-25T00:52:03.069Z,27.27
2019-02-25T00:54:31.477Z,24.57
2019-02-25T00:56:59.904Z,25.10
2019-02-25T00:59:28.339Z,16.77
2019-02-25T01:01:56.822Z,23.37
2019-02-25T01:04:25.302Z,17.90
2019-02-25T01:06:53.811Z,17.23
2019-02-25T01:09:22.293Z,22.63
2019-02-25T01:11:50.702Z,19.60
2019-02-25T01:14:19.211Z,15.53
2019-02-25T01:16:47.627Z,14.23
2019-02-25T01:19:16.113Z,13.27
2019-02-25T01:21:44.611Z,14.33
2019-02-25T01:24:13.095Z,18.23
2019-02-25T01:26:41.530Z,17.73
2019-02-25T01:29:09.966Z,19.57
2019-02-25T01:31:38.416Z,17.00
2019-02-25T01:34:06.890Z,19.93
2019-02-25T01:36:35.331Z,21.40
2019-02-25T01:39:04.684Z,16.97
2019-02-25T01:41:33.146Z,12.60
2019-02-25T01:44:01.594Z,17.40
2019-02-25T01:46:29.995Z,13.03
2019-02-25T01:48:58.474Z,12.33
2019-02-25T01:51:26.919Z,14.20
2019-02-25T01:53:55.401Z,22.27
2019-02-25T01:56:23.809Z,18.20
2019-02-25T01:58:52.350Z,23.17
2019-02-25T02:01:20.758Z,22.97
2019-02-25T02:03:49.163Z,23.20
2019-02-25T02:06:17.694Z,22.50
2019-02-25T02:08:46.298Z,18.93
2019-02-25T02:11:14.723Z,18.47
2019-02-25T02:13:43.201Z,31.13
2019-02-25T02:16:11.634Z,23.33
2019-02-25T02:18:40.159Z,17.77
2019-02-25T02:21:08.639Z,17.70
2019-02-25T02:23:37.075Z,17.50
2019-02-25T02:26:05.599Z,13.97
2019-02-25T02:28:34.006Z,23.47
2019-02-25T02:31:02.468Z,19.30
2019-02-25T02:33:30.946Z,23.23
2019-02-25T02:35:59.354Z,28.83
2019-02-25T02:38:27.797Z,33.40
2019-02-25T02:40:56.215Z,29.30
2019-02-25T02:43:24.612Z,28.17
2019-02-25T02:45:56.355Z,29.87
2019-02-25T02:48:28.071Z,31.30
2019-02-25T02:50:56.482Z,35.80
2019-02-25T02:53:24.934Z,31.87
2019-02-25T02:55:53.411Z,35.53
2019-02-25T02:58:21.823Z,30.27
2019-02-25T03:00:50.256Z,38.97
2019-02-25T03:03:18.671Z,25.00
2019-02-25T03:05:47.146Z,40.73
2019-02-25T03:08:15.666Z,28.53
2019-02-25T03:10:44.146Z,36.63
2019-02-25T03:13:12.562Z,32.80
2019-02-25T03:15:41.088Z,30.57
2019-02-25T03:18:09.511Z,32.13
2019-02-25T03:20:37.923Z,30.20
2019-02-25T03:23:06.426Z,31.60
2019-02-25T03:25:34.842Z,26.67
2019-02-25T03:28:03.326Z,24.20
2019-02-25T03:30:31.850Z,25.73
2019-02-25T03:33:00.320Z,24.97
2019-02-25T03:35:28.730Z,21.50
2019-02-25T03:37:57.183Z,26.87
2019-02-25T03:40:25.594Z,25.50
2019-02-25T03:42:54.004Z,35.50
2019-02-25T03:45:22.482Z,28.17
2019-02-25T03:47:50.962Z,27.20
2019-02-25T03:50:19.434Z,30.60
2019-02-25T03:52:47.871Z,28.73
2019-02-25T03:55:18.880Z,27.73
2019-02-25T03:57:48.230Z,34.97
2019-02-25T04:00:24.038Z,20.13
2019-02-25T04:02:52.530Z,29.70
2019-02-25T04:05:20.940Z,21.37
2019-02-25T04:07:49.453Z,27.30
2019-02-25T04:10:17.932Z,22.13
2019-02-25T04:12:46.334Z,22.40
2019-02-25T04:15:17.951Z,22.40
2019-02-25T04:17:46.360Z,36.23
2019-02-25T04:20:17.877Z,27.30
2019-02-25T04:22:46.319Z,25.10
2019-02-25T04:25:14.735Z,28.90
2019-02-25T04:27:43.154Z,28.30
2019-02-25T04:30:13.894Z,24.10
2019-02-25T04:32:42.383Z,28.03
2019-02-25T04:35:11.858Z,27.10
2019-02-25T04:37:40.265Z,22.00
2019-02-25T04:40:13.458Z,31.77
2019-02-25T04:42:41.968Z,26.23
2019-02-25T04:45:13.014Z,20.27
2019-02-25T04:47:41.459Z,20.57
2019-02-25T04:50:11.233Z,18.10
2019-02-25T04:52:39.711Z,22.33
2019-02-25T04:55:09.968Z,20.60
2019-02-25T04:57:38.411Z,25.47
2019-02-25T05:00:12.642Z,26.70
2019-02-25T05:02:41.053Z,23.17
2019-02-25T05:05:09.815Z,24.97
2019-02-25T05:07:38.297Z,24.37
2019-02-25T05:10:09.770Z,25.23
2019-02-25T05:12:39.283Z,27.03
2019-02-25T05:15:09.304Z,24.13
2019-02-25T05:17:37.711Z,23.63
2019-02-25T05:20:07.202Z,30.03
2019-02-25T05:22:37.506Z,18.87
2019-02-25T05:25:10.793Z,27.33
2019-02-25T05:27:39.202Z,36.70
2019-02-25T05:30:15.567Z,22.27
2019-02-25T05:32:43.977Z,29.03
2019-02-25T05:35:13.519Z,31.30
2019-02-25T05:37:41.998Z,33.43
2019-02-25T05:40:20.140Z,25.17
2019-02-25T05:42:48.555Z,21.93
2019-02-25T05:45:17.041Z,23.57
2019-02-25T05:47:45.533Z,24.90
2019-02-25T05:50:16.473Z,15.03
2019-02-25T05:52:44.885Z,20.20
2019-02-25T05:55:16.699Z,22.10
2019-02-25T05:57:45.240Z,21.80
2019-02-25T06:00:18.549Z,23.00
2019-02-25T06:02:46.995Z,21.63
2019-02-25T06:05:15.398Z,27.53
2019-02-25T06:07:43.811Z,22.87
2019-02-25T06:10:13.399Z,28.33
2019-02-25T06:12:41.802Z,22.93
2019-02-25T06:15:20.824Z,22.93
2019-02-25T06:17:49.299Z,32.63
2019-02-25T06:20:17.980Z,22.20
2019-02-25T06:22:46.486Z,25.87
2019-02-25T06:25:16.075Z,30.53
2019-02-25T06:27:44.594Z,21.63
2019-02-25T06:30:20.634Z,32.43
2019-02-25T06:32:49.040Z,29.20
2019-02-25T06:35:17.448Z,30.17
2019-02-25T06:37:45.890Z,29.00
2019-02-25T06:40:18.185Z,36.43
2019-02-25T06:42:46.632Z,32.43
2019-02-25T06:45:23.749Z,33.03
2019-02-25T06:47:52.173Z,32.17
2019-02-25T06:50:20.627Z,40.40
2019-02-25T06:52:49.289Z,34.20
2019-02-25T06:55:17.705Z,34.80
2019-02-25T06:57:46.170Z,42.27
2019-02-25T07:00:16.575Z,34.40
2019-02-25T07:02:44.990Z,36.30
2019-02-25T07:05:15.035Z,45.87
2019-02-25T07:08:00.173Z,35.97
2019-02-25T07:10:42.334Z,39.17
2019-02-25T07:13:21.410Z,33.03
2019-02-25T07:16:08.087Z,28.87
2019-02-25T07:18:47.498Z,25.50
2019-02-25T07:21:18.123Z,23.73
2019-02-25T07:23:51.267Z,30.97
2019-02-25T07:26:30.575Z,25.50
2019-02-25T07:29:03.648Z,24.07
2019-02-25T07:31:36.210Z,21.60
2019-02-25T07:34:09.306Z,25.97
2019-02-25T07:36:42.247Z,19.83
2019-02-25T07:39:15.371Z,22.83
2019-02-25T07:41:57.757Z,24.40
2019-02-25T07:44:30.862Z,26.03
2019-02-25T07:47:10.039Z,22.73
2019-02-25T07:49:56.260Z,22.27
2019-02-25T07:52:32.227Z,32.97
2019-02-25T07:55:11.397Z,24.37
2019-02-25T07:57:41.523Z,24.20
2019-02-25T08:00:12.040Z,22.00
2019-02-25T08:02:47.774Z,20.57
2019-02-25T08:05:17.826Z,27.63
2019-02-25T08:07:47.879Z,31.60
2019-02-25T08:10:20.610Z,28.57
2019-02-25T08:12:50.651Z,30.87
2019-02-25T08:15:20.707Z,32.70
2019-02-25T08:17:50.786Z,31.93
2019-02-25T08:20:30.070Z,20.23
2019-02-25T08:23:12.216Z,25.50
2019-02-25T08:25:48.153Z,23.57
2019-02-25T08:28:23.854Z,36.10
2019-02-25T08:30:53.906Z,29.60
2019-02-25T08:33:26.651Z,28.93
2019-02-25T08:36:18.239Z,30.03
2019-02-25T08:38:57.594Z,29.37
2019-02-25T08:41:46.061Z,35.20
2019-02-25T08:44:30.991Z,30.43
2019-02-25T08:47:01.071Z,31.80
2019-02-25T08:49:31.183Z,42.00
2019-02-25T08:51:59.630Z,29.30
2019-02-25T08:54:28.098Z,32.67
2019-02-25T08:56:56.507Z,28.43
2019-02-25T08:59:25.013Z,34.33
2019-02-25T09:01:53.462Z,32.87
2019-02-25T09:04:21.951Z,29.93
2019-02-25T09:06:50.430Z,37.53
2019-02-25T09:09:18.878Z,30.37
2019-02-25T09:11:47.314Z,32.83
2019-02-25T09:14:15.796Z,27.90
2019-02-25T09:16:44.310Z,31.43
2019-02-25T09:19:12.844Z,35.50
2019-02-25T09:21:41.259Z,25.37
2019-02-25T09:24:09.717Z,24.00
2019-02-25T09:26:38.157Z,24.80
2019-02-25T09:29:06.671Z,28.93
2019-02-25T09:31:35.080Z,34.27
2019-02-25T09:34:03.543Z,33.33
2019-02-25T09:36:32.015Z,28.87
2019-02-25T09:39:00.430Z,25.80
2019-02-25T09:41:30.180Z,24.03
2019-02-25T09:43:58.774Z,28.20
2019-02-25T09:46:27.187Z,23.47
2019-02-25T09:48:55.706Z,27.37
2019-02-25T09:51:24.132Z,36.93
2019-02-25T09:53:52.615Z,31.00
2019-02-25T09:56:21.055Z,27.30
2019-02-25T09:58:49.571Z,28.63
2019-02-25T10:01:18.050Z,19.00
2019-02-25T10:03:46.491Z,22.07
2019-02-25T10:06:14.971Z,26.03
2019-02-25T10:08:43.390Z,18.23
2019-02-25T10:11:12.010Z,24.70
2019-02-25T10:13:40.490Z,22.30
2019-02-25T10:16:08.982Z,24.00
2019-02-25T10:18:37.431Z,18.70
2019-02-25T10:21:05.850Z,20.00
2019-02-25T10:23:34.338Z,24.23
2019-02-25T10:26:02.894Z,23.93
2019-02-25T10:28:31.310Z,21.77
2019-02-25T10:30:59.789Z,17.57
2019-02-25T10:33:28.235Z,19.97
2019-02-25T10:35:56.682Z,22.33
2019-02-25T10:38:25.158Z,21.60
2019-02-25T10:40:53.945Z,19.80
2019-02-25T10:43:22.587Z,20.97
2019-02-25T10:45:51.006Z,19.80
2019-02-25T10:48:19.978Z,22.27
2019-02-25T10:50:55.708Z,19.07
2019-02-25T10:53:20.411Z,15.27
2019-02-25T10:56:02.414Z,25.03
2019-02-25T10:58:31.719Z,19.83
2019-02-25T11:01:01.146Z,14.13
2019-02-25T11:03:29.558Z,13.17
2019-02-25T11:05:58.612Z,18.13
2019-02-25T11:08:29.030Z,19.67
2019-02-25T11:10:59.094Z,17.97
2019-02-25T11:13:29.593Z,21.13
2019-02-25T11:15:57.710Z,21.33
2019-02-25T11:18:28.218Z,18.03
2019-02-25T11:20:56.205Z,20.83
2019-02-25T11:23:24.623Z,24.30
2019-02-25T11:25:53.758Z,24.93
2019-02-25T11:28:25.903Z,20.73
2019-02-25T11:30:53.792Z,23.87
2019-02-25T11:33:23.213Z,11.87
2019-02-25T11:35:52.507Z,19.97
2019-02-25T11:38:20.954Z,28.77
2019-02-25T11:40:49.366Z,17.70
2019-02-25T11:43:18.925Z,18.17
2019-02-25T11:45:47.975Z,27.13
2019-02-25T11:48:16.382Z,20.63
2019-02-25T11:50:44.906Z,20.43
2019-02-25T11:53:13.430Z,21.10
2019-02-25T11:55:41.959Z,18.17
2019-02-25T11:58:10.395Z,17.43
2019-02-25T12:00:39.890Z,16.93
2019-02-25T12:03:08.569Z,15.23
2019-02-25T12:05:37.014Z,14.87
2019-02-25T12:08:05.431Z,21.67
2019-02-25T12:10:33.875Z,22.73
2019-02-25T12:13:02.378Z,15.77
2019-02-25T12:15:30.797Z,15.20
2019-02-25T12:17:59.303Z,20.60
2019-02-25T12:20:27.938Z,21.33
2019-02-25T12:22:56.350Z,16.23
2019-02-25T12:25:25.707Z,19.50
2019-02-25T12:27:54.145Z,23.00
2019-02-25T12:30:24.922Z,17.97
2019-02-25T12:32:53.335Z,16.67
2019-02-25T12:35:21.844Z,22.87
2019-02-25T12:37:50.278Z,18.10
2019-02-25T12:40:18.843Z,22.53
2019-02-25T12:42:47.349Z,14.03
2019-02-25T12:45:16.108Z,17.67
2019-02-25T12:47:44.586Z,14.13
2019-02-25T12:50:17.031Z,19.23
2019-02-25T12:52:45.443Z,25.97
2019-02-25T12:55:14.890Z,27.73
2019-02-25T12:57:43.427Z,17.90
2019-02-25T13:00:14.242Z,19.43
2019-02-25T13:02:42.677Z,20.90
2019-02-25T13:05:16.986Z,23.87
2019-02-25T13:07:45.482Z,17.93
2019-02-25T13:10:17.730Z,19.27
2019-02-25T13:12:46.255Z,20.73
2019-02-25T13:15:17.062Z,24.37
2019-02-25T13:17:45.507Z,17.92
2019-02-25T13:20:14.753Z,31.05
2019-02-25T13:22:43.248Z,24.82
2019-02-25T13:25:16.990Z,20.77
2019-02-25T13:27:45.415Z,19.50
2019-02-25T13:30:15.445Z,24.43
2019-02-25T13:32:43.964Z,21.73
2019-02-25T13:35:13.719Z,24.07
2019-02-25T13:37:42.227Z,20.00
2019-02-25T13:40:15.250Z,16.93
2019-02-25T13:42:43.737Z,15.58
2019-02-25T13:45:15.247Z,17.87
2019-02-25T13:47:43.759Z,26.62
2019-02-25T13:50:13.620Z,13.70
2019-02-25T13:52:47.947Z,30.70
2019-02-25T13:55:19.289Z,18.40
2019-02-25T13:57:47.766Z,30.62
2019-02-25T14:00:19.539Z,22.57
2019-02-25T14:02:47.987Z,18.15
2019-02-25T14:05:16.496Z,15.38
2019-02-25T14:07:45.603Z,16.77
2019-02-25T14:10:16.142Z,21.20
2019-02-25T14:12:44.602Z,17.12
2019-02-25T14:15:20.114Z,18.05
2019-02-25T14:17:48.525Z,17.23
2019-02-25T14:20:23.992Z,23.35
2019-02-25T14:22:52.469Z,28.10
2019-02-25T14:25:29.807Z,22.02
2019-02-25T14:27:58.418Z,18.52
2019-02-25T14:30:27.675Z,17.95
2019-02-25T14:32:56.443Z,23.75
2019-02-25T14:35:34.215Z,23.02
2019-02-25T14:38:08.146Z,25.37
2019-02-25T14:40:39.412Z,27.42
2019-02-25T14:43:05.991Z,24.10
2019-02-25T14:45:34.722Z,26.42
2019-02-25T14:48:05.349Z,23.15
2019-02-25T14:50:33.407Z,28.80
2019-02-25T14:53:03.984Z,21.62
2019-02-25T14:55:32.034Z,27.25
2019-02-25T14:58:04.454Z,29.37
2019-02-25T15:00:32.805Z,20.97
2019-02-25T15:03:00.677Z,19.37
2019-02-25T15:05:29.159Z,19.07
2019-02-25T15:07:57.871Z,18.48
2019-02-25T15:10:29.113Z,17.95
2019-02-25T15:12:58.761Z,34.00
2019-02-25T15:15:26.671Z,24.43
2019-02-25T15:17:55.206Z,25.70
2019-02-25T15:20:25.612Z,17.65
2019-02-25T15:22:53.752Z,28.55
2019-02-25T15:25:22.274Z,23.93
2019-02-25T15:27:50.758Z,28.47
2019-02-25T15:30:30.842Z,31.77
2019-02-25T15:33:00.102Z,19.75
2019-02-25T15:35:32.307Z,32.67
2019-02-25T15:38:00.490Z,28.90
2019-02-25T15:40:29.214Z,23.87
2019-02-25T15:43:02.527Z,25.50
2019-02-25T15:45:33.447Z,25.23
2019-02-25T15:48:02.955Z,23.90
2019-02-25T15:50:31.372Z,31.83
2019-02-25T15:53:02.565Z,30.13
2019-02-25T15:55:30.386Z,32.00
2019-02-25T15:57:58.884Z,20.80
2019-02-25T16:00:30.009Z,29.37
2019-02-25T16:02:58.862Z,21.02
2019-02-25T16:05:29.585Z,21.73
2019-02-25T16:07:59.966Z,32.53
2019-02-25T16:10:28.478Z,31.17
2019-02-25T16:12:57.874Z,25.73
2019-02-25T16:15:27.000Z,22.17
2019-02-25T16:17:55.475Z,30.27
2019-02-25T16:20:25.290Z,27.37
2019-02-25T16:22:56.294Z,31.00
2019-02-25T16:25:27.082Z,31.77
2019-02-25T16:27:55.437Z,28.97
2019-02-25T16:30:25.693Z,28.10
2019-02-25T16:32:54.004Z,32.27
2019-02-25T16:35:22.427Z,33.97
2019-02-25T16:37:53.109Z,32.97
2019-02-25T16:40:24.435Z,36.17
2019-02-25T16:42:54.906Z,31.03
2019-02-25T16:45:22.918Z,28.40
2019-02-25T16:47:51.443Z,34.67
2019-02-25T16:50:21.099Z,28.60
2019-02-25T16:52:50.614Z,29.20
2019-02-25T16:55:22.665Z,29.60
2019-02-25T16:57:52.066Z,33.43
2019-02-25T17:00:29.380Z,29.23
2019-02-25T17:02:59.289Z,37.37
2019-02-25T17:05:26.026Z,29.10
2019-02-25T17:07:56.052Z,31.27
2019-02-25T17:10:27.093Z,32.63
2019-02-25T17:12:55.937Z,40.00
2019-02-25T17:15:26.359Z,34.77
2019-02-25T17:17:58.414Z,28.27
2019-02-25T17:20:27.843Z,38.97
2019-02-25T17:22:55.134Z,39.10
2019-02-25T17:25:26.832Z,33.37
2019-02-25T17:27:53.708Z,35.97
2019-02-25T17:30:26.434Z,32.27
2019-02-25T17:32:54.951Z,44.00
2019-02-25T17:35:26.584Z,36.23
2019-02-25T17:37:56.265Z,33.70
2019-02-25T17:40:24.730Z,33.67
2019-02-25T17:42:54.550Z,37.90
2019-02-25T17:45:27.687Z,41.60
2019-02-25T17:47:58.440Z,35.57
2019-02-25T17:50:26.395Z,42.40
2019-02-25T17:52:54.850Z,42.07
2019-02-25T17:55:27.228Z,40.47
2019-02-25T17:57:56.530Z,36.70
2019-02-25T18:00:31.951Z,38.67
2019-02-25T18:03:01.437Z,37.07
2019-02-25T18:05:31.793Z,36.77
2019-02-25T18:08:02.972Z,35.00
2019-02-25T18:10:31.508Z,35.87
2019-02-25T18:13:01.608Z,35.43
2019-02-25T18:15:32.830Z,37.70
2019-02-25T18:18:01.464Z,42.10
2019-02-25T18:20:29.941Z,40.37
2019-02-25T18:22:58.758Z,36.67
2019-02-25T18:25:27.240Z,31.47
2019-02-25T18:27:55.726Z,34.87
2019-02-25T18:30:30.121Z,45.30
2019-02-25T18:33:00.977Z,38.80
2019-02-25T18:35:29.047Z,32.57
2019-02-25T18:37:58.622Z,29.37
2019-02-25T18:40:28.103Z,28.70
2019-02-25T18:42:58.205Z,36.07
2019-02-25T18:45:26.695Z,33.27
2019-02-25T18:47:55.144Z,24.67
2019-02-25T18:50:24.722Z,27.00
2019-02-25T18:52:56.723Z,28.33
2019-02-25T18:55:27.117Z,30.63
2019-02-25T18:57:56.331Z,31.27
2019-02-25T19:00:41.931Z,35.43
2019-02-25T19:03:09.909Z,22.37
2019-02-25T19:05:38.360Z,25.20
2019-02-25T19:08:14.923Z,38.10
2019-02-25T19:10:46.080Z,29.83
2019-02-25T19:13:15.968Z,32.70
2019-02-25T19:15:44.393Z,25.37
2019-02-25T19:18:13.793Z,24.20
2019-02-25T19:20:44.022Z,24.77
2019-02-25T19:23:13.920Z,32.27
2019-02-25T19:25:43.296Z,23.27
2019-02-25T19:28:16.576Z,29.57
2019-02-25T19:30:42.186Z,32.63
2019-02-25T19:33:11.509Z,23.80
2019-02-25T19:35:40.865Z,26.37
2019-02-25T19:38:10.371Z,22.17
2019-02-25T19:40:40.850Z,23.50
2019-02-25T19:43:10.210Z,25.07
2019-02-25T19:45:40.309Z,38.47
2019-02-25T19:48:08.791Z,27.53
2019-02-25T19:50:49.871Z,27.13
2019-02-25T19:53:09.537Z,26.03
2019-02-25T19:55:40.442Z,27.57
2019-02-25T19:58:07.756Z,25.33
2019-02-25T20:00:36.244Z,28.17
2019-02-25T20:03:06.160Z,32.73
2019-02-25T20:05:38.919Z,30.73
2019-02-25T20:08:05.289Z,37.03
2019-02-25T20:10:34.135Z,34.67
2019-02-25T20:13:05.662Z,32.23
2019-02-25T20:15:33.052Z,43.17
2019-02-25T20:18:01.561Z,35.50
2019-02-25T20:20:33.627Z,30.77
2019-02-25T20:23:03.860Z,22.27
2019-02-25T20:25:32.023Z,37.87
2019-02-25T20:28:02.184Z,31.50
2019-02-25T20:30:30.659Z,29.90
2019-02-25T20:33:00.799Z,28.33
2019-02-25T20:35:31.215Z,29.50
2019-02-25T20:38:00.390Z,30.30
2019-02-25T20:40:30.606Z,35.87
2019-02-25T20:43:00.965Z,28.27
2019-02-25T20:45:33.197Z,31.90
2019-02-25T20:48:03.384Z,31.30
2019-02-25T20:50:31.848Z,34.57
2019-02-25T20:53:05.049Z,39.37
2019-02-25T20:55:31.599Z,31.03
2019-02-25T20:58:00.619Z,42.17
2019-02-25T21:00:29.112Z,35.57
2019-02-25T21:02:57.558Z,39.10
2019-02-25T21:05:27.387Z,35.70
2019-02-25T21:07:57.942Z,35.97
2019-02-25T21:10:27.899Z,44.03
2019-02-25T21:12:57.178Z,37.40
2019-02-25T21:15:26.268Z,47.57
2019-02-25T21:17:56.832Z,40.73
2019-02-25T21:20:26.076Z,39.47
2019-02-25T21:22:57.681Z,43.20
2019-02-25T21:25:26.860Z,43.77
2019-02-25T21:27:59.029Z,42.33
2019-02-25T21:30:27.121Z,38.60
2019-02-25T21:32:57.159Z,42.93
2019-02-25T21:35:27.799Z,42.17
2019-02-25T21:37:55.765Z,39.40
2019-02-25T21:40:27.126Z,37.20
2019-02-25T21:42:56.686Z,46.43
2019-02-25T21:45:27.099Z,40.30
2019-02-25T21:47:56.540Z,42.43
2019-02-25T21:50:28.417Z,41.50
2019-02-25T21:52:55.348Z,45.47
2019-02-25T21:55:25.658Z,45.90
2019-02-25T21:57:54.904Z,38.57
2019-02-25T22:00:27.017Z,48.23
2019-02-25T22:02:55.635Z,45.67
2019-02-25T22:05:24.142Z,44.60
2019-02-25T22:07:54.753Z,43.53
2019-02-25T22:10:22.705Z,55.97
2019-02-25T22:12:51.137Z,48.13
2019-02-25T22:15:22.136Z,45.57
2019-02-25T22:17:50.695Z,34.47
2019-02-25T22:20:22.506Z,37.87
2019-02-25T22:22:54.598Z,37.70
2019-02-25T22:25:21.666Z,35.70
2019-02-25T22:27:50.168Z,31.30
2019-02-25T22:30:18.716Z,38.57
2019-02-25T22:32:47.160Z,37.07
2019-02-25T22:35:15.570Z,32.40
2019-02-25T22:37:46.804Z,32.30
2019-02-25T22:40:16.892Z,38.60
2019-02-25T22:42:47.131Z,35.60
2019-02-25T22:45:23.235Z,39.63
2019-02-25T22:47:51.732Z,34.23
2019-02-25T22:50:20.148Z,36.33
2019-02-25T22:52:51.622Z,43.70
2019-02-25T22:55:20.774Z,36.00
2019-02-25T22:57:51.186Z,36.87
2019-02-25T23:00:27.407Z,31.83
2019-02-25T23:02:56.839Z,30.07
2019-02-25T23:05:25.734Z,30.87
2019-02-25T23:07:54.686Z,33.87
2019-02-25T23:10:24.173Z,40.23
2019-02-25T23:12:53.009Z,38.23
2019-02-25T23:15:23.324Z,32.43
2019-02-25T23:17:51.642Z,31.50
2019-02-25T23:20:20.107Z,37.63
2019-02-25T23:22:48.620Z,30.63
2019-02-25T23:25:17.030Z,40.67
2019-02-25T23:27:45.444Z,35.90
2019-02-25T23:30:14.818Z,33.00
2019-02-25T23:32:43.244Z,37.23
2019-02-25T23:35:13.786Z,32.63
2019-02-25T23:37:45.100Z,31.33
2019-02-25T23:40:14.347Z,31.30
2019-02-25T23:42:44.317Z,37.13
2019-02-25T23:45:15.521Z,36.57
2019-02-25T23:47:43.960Z,53.47
2019-02-25T23:50:14.471Z,51.47
2019-02-25T23:52:42.910Z,49.43
2019-02-25T23:55:16.486Z,55.30
2019-02-25T23:57:44.415Z,53.17
